This is the latest recevied weather packets stored in our database for station/object OE-11140. If no packets are shown the sender has not sent any weather packets the latest 10 day(s).
| Time | Temp. | Humidity | Pressure | Rain* | Wind** | Luminosity | Snow |
|---|---|---|---|---|---|---|---|
| 1788167489 | 20.56° C | 73% | 1016.5 hPa | 0 mm | - | 272 W/m² | - |
| 1788167117 | 20° C | 76% | 1016.6 hPa | 0 mm | - | 278 W/m² | - |
| 1788166516 | 20° C | 76% | 1016.7 hPa | 0 mm | - | 272 W/m² | - |
| 1788165690 | 20° C | 79% | 1016.8 hPa | 0 mm | - | 325 W/m² | - |
| 1788164717 | 19.44° C | 82% | 1016.8 hPa | 0 mm | - | 232 W/m² | - |
| 1788163890 | 18.89° C | 82% | 1016.8 hPa | 0 mm | - | 159 W/m² | - |
| 1788163517 | 18.89° C | 82% | 1016.9 hPa | 0 mm | - | 152 W/m² | - |
| 1788162917 | 19.44° C | 81% | 1016.7 hPa | 0 mm | - | 199 W/m² | - |
| 1788161717 | 18.89° C | 86% | 1016.8 hPa | 0 mm | - | 351 W/m² | - |
| 1788161117 | 18.33° C | 88% | 1017 hPa | 0 mm | - | 212 W/m² | - |
| 1788160290 | 17.78° C | 90% | 1017.2 hPa | 0 mm | - | 186 W/m² | - |
| 1788159917 | 17.78° C | 90% | 1017.2 hPa | 0 mm | - | 139 W/m² | - |
| 1788159317 | 17.22° C | 90% | 1017.2 hPa | 0 mm | - | 106 W/m² | - |
| 1788158490 | 17.22° C | 91% | 1017.2 hPa | 0 mm | - | 106 W/m² | - |
| 1788158117 | 17.22° C | 92% | 1017.2 hPa | 0 mm | - | 66 W/m² | - |
| 1788157517 | 17.22° C | 92% | 1017.3 hPa | 0 mm | - | 53 W/m² | - |
| 1788156690 | 17.22° C | 92% | 1017.2 hPa | 0 mm | - | 53 W/m² | - |
| 1788156317 | 17.22° C | 92% | 1017.1 hPa | 0 mm | - | 40 W/m² | - |
| 1788155717 | 17.22° C | 92% | 1016.9 hPa | 0 mm | - | 20 W/m² | - |
| 1788154890 | 17.22° C | 91% | 1016.7 hPa | 0.25 mm | - | 13 W/m² | - |
| 1788154517 | 17.22° C | 92% | 1016.8 hPa | 0.25 mm | - | 7 W/m² | - |
| 1788153917 | 17.22° C | 91% | 1017.1 hPa | 0.25 mm | - | 7 W/m² | - |
| 1788153090 | 17.22° C | 93% | 1017.3 hPa | 0.51 mm | - | 7 W/m² | - |
| 1788152717 | 17.22° C | 92% | 1017.3 hPa | 0.51 mm | - | 0 W/m² | - |
| 1788152117 | 17.22° C | 92% | 1017.5 hPa | 0.51 mm | - | 0 W/m² | - |
* Rain latest hour (hover to see other rain measurements)
** Current wind speed in m/s (hover to see current wind gust speed)